EmailTwitter


Observations de surface / Québec / CYQB (71714)

Régions: Québec | Canada | États-Unis | Europe | France | UK | Elsewhere
Station
Affichage
Infos & localisation pour CYQB (71714) | Aide pour décoder les METARs

Observations prises le 2017-03-25 à 07H00 UTC à QUEBEC A, QB (CYQB)

Etat du ciel: partiellement nuageux.

Obstacle(s) à la visibilité: brume.

Température: -3.0 Celsius

Point de rosée: -4.0 Celsius

Humidité relative: 93%

Facteur vent: -8.

Vents: Sud-ouest à 17 km/h ou 9 noeuds.

Pression au niveau moyen de la mer: 101.95 kilopascals.

Calage altimétrique: 101.90 kilopascals ou 30.09 pouces de mercure.

Visibilité horizontale: 6.00 milles terrestres ou 9.60 kilomètres.

Hauteur du plafond: 914 mètres ( 3000 pieds ).

Observation METAR:

CYQB 250700Z 22009KT 6SM BR FEW009 BKN030 M03/M04 A3009 RMK SF1SC5 SLP195=